Time;durP1;ratioP1;P1;durP2;ratioP2;P2;SDS_P1;SDS_P2;PMS_P1;PMS_P2;Temp;Humidity;BMP_temperature;BMP_pressure;BME280_temperature;BME280_humidity;BME280_pressure;Samples;Min_cycle;Max_cycle;Signal;HPM_P1;HPM_P2
2023/04/17 00:04:13;;;;;;;5.00;2.35;;;;;;;9.93;100.00;102404.16;10382057;28;20050;-77
2023/04/17 00:09:15;;;;;;;3.22;2.05;;;;;;;9.69;100.00;102409.75;10352642;28;20045;-77
2023/04/17 00:14:16;;;;;;;1.15;0.98;;;;;;;9.90;100.00;102399.72;10371831;28;20129;-78
2023/04/17 00:19:18;;;;;;;4.57;1.30;;;;;;;9.65;100.00;102419.00;10371648;28;20052;-77
2023/04/17 00:24:19;;;;;;;3.88;2.85;;;;;;;9.71;100.00;102407.25;10366156;28;20073;-77
2023/04/17 00:29:21;;;;;;;1.20;0.90;;;;;;;9.69;100.00;102404.59;10369723;28;20068;-77
2023/04/17 00:34:22;;;;;;;2.63;1.60;;;;;;;9.81;100.00;102410.41;10355954;28;20167;-78
2023/04/17 00:39:24;;;;;;;1.33;1.02;;;;;;;9.88;100.00;102405.56;10365673;28;20052;-77
2023/04/17 00:44:26;;;;;;;8.32;2.70;;;;;;;9.73;100.00;102410.81;10353186;28;20168;-77
2023/04/17 00:49:28;;;;;;;1.77;1.35;;;;;;;9.80;100.00;102405.19;10352931;28;20046;-78
2023/04/17 00:54:31;;;;;;;2.38;2.15;;;;;;;9.84;100.00;102392.56;10357543;28;20044;-78
2023/04/17 00:59:34;;;;;;;3.63;1.80;;;;;;;9.76;100.00;102390.34;10352791;28;20488;-77
2023/04/17 01:04:36;;;;;;;1.83;1.65;;;;;;;9.65;100.00;102393.25;10366146;28;20101;-77
2023/04/17 01:09:37;;;;;;;1.67;1.15;;;;;;;9.58;100.00;102400.56;10377879;28;20046;-77
2023/04/17 01:14:39;;;;;;;2.03;1.45;;;;;;;9.59;100.00;102397.19;10354423;28;20574;-77
2023/04/17 01:19:40;;;;;;;2.17;1.55;;;;;;;9.32;100.00;102397.47;10349492;28;20500;-77
2023/04/17 01:24:42;;;;;;;4.00;2.50;;;;;;;9.48;100.00;102400.09;10368747;28;20065;-76
2023/04/17 01:29:44;;;;;;;2.08;1.60;;;;;;;9.47;100.00;102408.59;10350977;28;20591;-77
2023/04/17 01:34:46;;;;;;;3.03;1.98;;;;;;;9.60;100.00;102398.97;10334018;28;20061;-77
2023/04/17 01:39:47;;;;;;;3.05;1.80;;;;;;;9.38;100.00;102408.09;10351313;28;20056;-77
2023/04/17 01:44:49;;;;;;;4.57;1.52;;;;;;;9.29;100.00;102412.72;10347421;28;20053;-78
2023/04/17 01:49:50;;;;;;;1.33;0.95;;;;;;;9.42;100.00;102411.72;10352839;28;20133;-76
2023/04/17 01:54:52;;;;;;;2.72;1.98;;;;;;;9.47;100.00;102418.88;10367259;28;20042;-78
2023/04/17 01:59:53;;;;;;;1.50;1.38;;;;;;;9.44;100.00;102422.97;10366897;28;20129;-78
2023/04/17 02:04:55;;;;;;;3.05;1.33;;;;;;;9.47;100.00;102424.03;10367072;28;20096;-77
2023/04/17 02:09:56;;;;;;;4.60;2.10;;;;;;;9.35;100.00;102429.38;10366547;28;20137;-77
2023/04/17 02:14:59;;;;;;;4.57;2.25;;;;;;;9.35;100.00;102407.91;10350220;28;20077;-77
2023/04/17 02:20:03;;;;;;;3.22;1.77;;;;;;;9.27;100.00;102429.78;10349630;28;20046;-77
2023/04/17 02:25:07;;;;;;;4.32;1.48;;;;;;;9.50;100.00;102419.03;10347750;28;20054;-77
2023/04/17 02:30:09;;;;;;;4.43;2.53;;;;;;;9.34;100.00;102419.88;10369615;28;20132;-77
2023/04/17 02:35:10;;;;;;;2.40;1.13;;;;;;;9.19;100.00;102411.31;10368564;28;20080;-77
2023/04/17 02:40:13;;;;;;;3.08;1.40;;;;;;;9.19;100.00;102409.66;10360869;28;20058;-77
2023/04/17 02:45:14;;;;;;;9.65;3.22;;;;;;;9.32;100.00;102407.75;10380882;28;20053;-77
2023/04/17 02:50:16;;;;;;;7.38;2.22;;;;;;;9.20;100.00;102419.09;10366920;28;20096;-77
2023/04/17 02:55:34;;;;;;;3.10;1.20;;;;;;;9.16;100.00;102417.19;10330656;28;20049;-77
2023/04/17 03:00:38;;;;;;;6.07;2.20;;;;;;;9.28;100.00;102416.06;10355765;28;20038;-77
2023/04/17 03:05:41;;;;;;;2.25;1.40;;;;;;;9.48;100.00;102415.53;10346899;28;20046;-77
2023/04/17 03:10:43;;;;;;;4.18;2.17;;;;;;;9.35;100.00;102428.47;10347630;28;21094;-77
2023/04/17 03:15:45;;;;;;;4.15;1.63;;;;;;;9.29;100.00;102428.16;10334331;28;20054;-76
2023/04/17 03:20:46;;;;;;;2.95;1.98;;;;;;;9.21;100.00;102423.47;10347241;28;20116;-77
2023/04/17 03:25:48;;;;;;;2.55;1.63;;;;;;;9.44;100.00;102429.00;10345802;28;20160;-77
2023/04/17 03:30:51;;;;;;;7.47;1.55;;;;;;;9.35;100.00;102428.47;10345249;28;20554;-77
2023/04/17 03:35:52;;;;;;;2.53;1.30;;;;;;;9.29;100.00;102415.28;10347467;28;20057;-77
2023/04/17 03:40:54;;;;;;;2.92;1.92;;;;;;;9.29;100.00;102418.75;10347607;28;20519;-77
2023/04/17 03:45:58;;;;;;;1.17;1.08;;;;;;;9.34;100.00;102411.31;10346950;28;20141;-77
2023/04/17 03:50:59;;;;;;;2.30;1.65;;;;;;;9.33;100.00;102409.53;10347716;28;20034;-77
2023/04/17 03:56:03;;;;;;;5.95;1.75;;;;;;;9.38;100.00;102417.50;10348780;28;20673;-77
2023/04/17 04:01:11;;;;;;;6.30;2.33;;;;;;;9.36;100.00;102415.72;10347275;28;20116;-77
2023/04/17 04:06:23;;;;;;;4.95;3.13;;;;;;;9.48;100.00;102412.03;10351023;28;20045;-77
2023/04/17 04:11:25;;;;;;;6.53;2.40;;;;;;;9.52;100.00;102412.28;10357606;28;20428;-77
2023/04/17 04:16:27;;;;;;;1.73;1.05;;;;;;;9.48;100.00;102423.22;10347154;28;20056;-78
2023/04/17 04:21:38;;;;;;;2.45;1.63;;;;;;;9.40;100.00;102421.03;10347161;28;21328;-77
2023/04/17 04:26:46;;;;;;;6.28;3.13;;;;;;;9.47;100.00;102413.75;10354131;28;20054;-77
2023/04/17 04:31:49;;;;;;;10.20;2.90;;;;;;;9.40;100.00;102416.78;10361457;28;20818;-77
2023/04/17 04:36:55;;;;;;;3.47;1.50;;;;;;;9.47;100.00;102417.97;10379903;28;20045;-77
2023/04/17 04:42:09;;;;;;;18.05;3.03;;;;;;;9.62;100.00;102423.09;10353733;28;20523;-77
2023/04/17 04:47:25;;;;;;;5.07;3.08;;;;;;;9.53;100.00;102424.38;10348191;28;20137;-77
2023/04/17 04:52:28;;;;;;;7.60;3.40;;;;;;;9.73;100.00;102432.25;10357414;28;20096;-76
2023/04/17 04:57:33;;;;;;;5.13;3.53;;;;;;;9.62;100.00;102436.84;10363530;28;20049;-77
2023/04/17 05:02:36;;;;;;;3.17;2.80;;;;;;;9.59;100.00;102444.41;10346733;28;20045;-78
2023/04/17 05:07:40;;;;;;;2.33;2.13;;;;;;;9.48;100.00;102448.97;10343822;28;20046;-77
2023/04/17 05:12:45;;;;;;;3.42;1.73;;;;;;;9.74;100.00;102449.47;10334691;28;20150;-78
2023/04/17 05:17:47;;;;;;;9.07;2.67;;;;;;;9.50;100.00;102457.63;10347366;28;20421;-77
2023/04/17 05:22:49;;;;;;;5.93;2.75;;;;;;;9.49;100.00;102465.28;10346596;28;20046;-77
2023/04/17 05:27:51;;;;;;;2.10;1.52;;;;;;;9.85;100.00;102473.22;10371787;28;20041;-77
2023/04/17 05:32:53;;;;;;;9.60;2.58;;;;;;;9.67;100.00;102478.25;10370477;28;20145;-78
2023/04/17 05:38:03;;;;;;;3.38;1.85;;;;;;;9.65;100.00;102485.91;10370251;28;20133;-77
2023/04/17 05:43:08;;;;;;;3.50;2.25;;;;;;;9.94;100.00;102488.31;10364434;28;20107;-77
2023/04/17 05:48:10;;;;;;;2.15;1.60;;;;;;;9.92;100.00;102489.91;10352772;28;20038;-77
2023/04/17 05:53:11;;;;;;;4.90;1.58;;;;;;;9.91;100.00;102499.31;10350276;28;20459;-78
2023/04/17 05:58:21;;;;;;;3.17;1.67;;;;;;;9.80;100.00;102506.44;10372619;28;20073;-78
2023/04/17 06:03:28;;;;;;;5.07;2.67;;;;;;;10.34;100.00;102505.88;10337251;28;20590;-76
2023/04/17 06:08:37;;;;;;;3.38;2.17;;;;;;;10.19;100.00;102505.06;10354282;28;20116;-77
2023/04/17 06:13:39;;;;;;;4.90;3.08;;;;;;;10.01;100.00;102508.44;10366893;28;20045;-76
2023/04/17 06:18:41;;;;;;;3.47;2.03;;;;;;;10.26;100.00;102517.44;10348077;28;20046;-76
2023/04/17 06:23:43;;;;;;;4.35;1.55;;;;;;;10.09;100.00;102516.56;10351288;28;20073;-76
2023/04/17 06:28:44;;;;;;;7.60;2.28;;;;;;;9.95;100.00;102523.53;10352865;28;20576;-75
2023/04/17 06:33:48;;;;;;;12.95;3.78;;;;;;;10.15;100.00;102525.50;10349768;28;20038;-76
2023/04/17 06:38:53;;;;;;;5.15;2.20;;;;;;;10.21;100.00;102521.47;10363888;28;20475;-76
2023/04/17 06:43:56;;;;;;;7.90;4.20;;;;;;;10.56;100.00;102522.47;10352745;28;20045;-76
2023/04/17 06:48:58;;;;;;;10.55;3.22;;;;;;;10.51;100.00;102539.41;10362269;28;20428;-77
2023/04/17 06:54:02;;;;;;;8.27;3.47;;;;;;;10.40;100.00;102537.13;10338343;28;20050;-77
2023/04/17 06:59:03;;;;;;;6.97;3.95;;;;;;;10.43;100.00;102541.56;10374023;28;20120;-77
2023/04/17 07:04:07;;;;;;;3.88;2.00;;;;;;;10.15;100.00;102551.25;10368853;28;20125;-77
2023/04/17 07:09:08;;;;;;;4.28;3.33;;;;;;;10.40;100.00;102542.28;10357914;28;20045;-77
2023/04/17 07:14:10;;;;;;;3.75;2.35;;;;;;;10.31;100.00;102552.97;10393803;28;20034;-77
2023/04/17 07:19:13;;;;;;;9.02;3.60;;;;;;;10.54;100.00;102557.59;10370034;28;20053;-77
2023/04/17 07:24:15;;;;;;;6.47;2.08;;;;;;;10.66;100.00;102550.50;10364677;28;20038;-77
2023/04/17 07:29:16;;;;;;;5.30;2.78;;;;;;;10.88;100.00;102569.66;10362791;28;20046;-78
2023/04/17 07:34:18;;;;;;;2.90;2.40;;;;;;;10.92;100.00;102576.75;10355003;28;20439;-77
2023/04/17 07:39:19;;;;;;;4.85;3.10;;;;;;;11.02;100.00;102591.00;10371297;28;20056;-77
2023/04/17 07:44:21;;;;;;;4.22;1.98;;;;;;;10.85;100.00;102598.75;10344785;28;20078;-78
2023/04/17 07:49:22;;;;;;;4.90;2.22;;;;;;;11.15;100.00;102590.81;10380253;28;20069;-78
2023/04/17 07:54:24;;;;;;;3.80;2.38;;;;;;;11.03;100.00;102596.25;10372597;28;20034;-77
2023/04/17 07:59:25;;;;;;;6.18;2.92;;;;;;;11.12;100.00;102606.13;10378320;28;20140;-77
2023/04/17 08:04:27;;;;;;;5.85;3.75;;;;;;;11.09;100.00;102609.44;10380791;28;20133;-77
2023/04/17 08:09:29;;;;;;;3.30;1.73;;;;;;;11.40;100.00;102626.47;10357043;28;20153;-77
2023/04/17 08:14:31;;;;;;;7.78;3.15;;;;;;;11.71;100.00;102628.00;10361794;28;20042;-77
2023/04/17 08:19:32;;;;;;;2.05;1.88;;;;;;;12.30;100.00;102630.81;10373132;28;20072;-76
2023/04/17 08:24:34;;;;;;;3.80;2.22;;;;;;;12.47;100.00;102652.25;10355233;28;20053;-77
2023/04/17 08:29:36;;;;;;;3.42;2.40;;;;;;;12.29;100.00;102649.72;10370338;28;20081;-77
2023/04/17 08:34:38;;;;;;;2.42;1.65;;;;;;;12.28;100.00;102660.84;10375826;28;20395;-77
2023/04/17 08:39:39;;;;;;;3.65;2.15;;;;;;;12.91;100.00;102657.69;10360794;28;20504;-77
2023/04/17 08:44:41;;;;;;;9.68;4.68;;;;;;;12.03;100.00;102672.59;10368581;28;20061;-77
2023/04/17 08:49:44;;;;;;;2.67;2.03;;;;;;;13.17;100.00;102673.47;10374702;28;20492;-76
2023/04/17 08:54:46;;;;;;;3.08;1.80;;;;;;;13.01;100.00;102685.72;10356155;28;20088;-76
2023/04/17 08:59:51;;;;;;;3.33;2.55;;;;;;;13.49;100.00;102689.53;10353266;28;20088;-77
2023/04/17 09:04:53;;;;;;;3.20;2.15;;;;;;;13.04;100.00;102684.97;10362458;28;20061;-77
2023/04/17 09:09:55;;;;;;;3.58;1.90;;;;;;;12.68;100.00;102691.16;10340437;28;20060;-77
2023/04/17 09:14:57;;;;;;;2.63;2.25;;;;;;;13.49;100.00;102699.91;10374696;28;20038;-77
2023/04/17 09:20:10;;;;;;;3.78;2.08;;;;;;;13.02;100.00;102713.38;10368486;28;20076;-76
2023/04/17 09:25:19;;;;;;;2.03;1.80;;;;;;;13.46;100.00;102710.09;10374921;28;20081;-77
2023/04/17 09:30:23;;;;;;;1.27;1.17;;;;;;;14.35;100.00;102710.31;10349709;28;20731;-77
2023/04/17 09:35:25;;;;;;;4.35;2.30;;;;;;;14.64;100.00;102722.59;10364953;28;20113;-77
2023/04/17 09:40:36;;;;;;;2.45;1.58;;;;;;;14.71;100.00;102740.19;10388188;28;20583;-77
2023/04/17 09:45:40;;;;;;;4.50;2.17;;;;;;;14.34;100.00;102733.56;10386353;28;20048;-77
2023/04/17 09:50:43;;;;;;;5.93;2.50;;;;;;;14.05;100.00;102728.09;10385287;28;20054;-77
2023/04/17 09:55:44;;;;;;;4.50;1.67;;;;;;;14.43;100.00;102741.69;10374491;28;20132;-77
2023/04/17 10:00:46;;;;;;;7.93;2.13;;;;;;;14.37;100.00;102736.28;10363777;28;20045;-77
2023/04/17 10:05:48;;;;;;;4.75;2.25;;;;;;;14.76;100.00;102736.09;10341312;28;20448;-76
2023/04/17 10:10:51;;;;;;;1.40;1.00;;;;;;;15.93;100.00;102733.28;10353989;28;20081;-77
2023/04/17 10:15:52;;;;;;;2.42;1.55;;;;;;;15.20;100.00;102736.84;10359960;28;20038;-77
2023/04/17 10:20:54;;;;;;;6.10;2.00;;;;;;;15.65;100.00;102724.53;10355127;28;20463;-77
2023/04/17 10:26:24;;;;;;;3.05;1.95;;;;;;;15.27;100.00;102730.16;10342452;28;20095;-77
2023/04/17 10:32:15;;;;;;;1.63;1.30;;;;;;;15.29;100.00;102730.22;10368106;28;20038;-79
2023/04/17 10:37:17;;;;;;;;;;;;;;;15.16;100.00;102732.38;10341449;28;20590;-78
2023/04/17 10:42:21;;;;;;;2.00;1.17;;;;;;;15.22;100.00;102730.00;10372098;28;20380;-77
2023/04/17 10:47:30;;;;;;;2.13;1.42;;;;;;;16.90;100.00;102717.16;10343479;28;20271;-77
2023/04/17 10:52:32;;;;;;;3.10;1.50;;;;;;;16.02;100.00;102723.19;10385324;28;20062;-77
2023/04/17 10:57:50;;;;;;;3.17;1.25;;;;;;;16.39;100.00;102721.75;10360388;28;20050;-77
2023/04/17 11:02:52;;;;;;;2.72;1.30;;;;;;;15.54;100.00;102722.44;10345013;28;20465;-78
2023/04/17 11:07:54;;;;;;;1.42;0.95;;;;;;;16.47;100.00;102711.56;10346322;28;20089;-77
2023/04/17 11:12:55;;;;;;;1.40;1.02;;;;;;;16.73;100.00;102707.16;10363790;28;20139;-77
2023/04/17 11:17:58;;;;;;;1.20;0.90;;;;;;;15.40;100.00;102710.69;10362417;28;20139;-77
2023/04/17 11:23:01;;;;;;;4.32;0.82;;;;;;;15.76;100.00;102704.97;10377118;28;20033;-78
2023/04/17 11:28:04;;;;;;;2.00;1.38;;;;;;;16.04;100.00;102702.44;10365898;28;20069;-77
2023/04/17 11:33:07;;;;;;;1.13;0.88;;;;;;;15.04;100.00;102711.16;10350916;28;20069;-77
2023/04/17 11:38:17;;;;;;;3.38;1.00;;;;;;;16.38;100.00;102700.91;10376809;28;20420;-77
2023/04/17 11:43:21;;;;;;;7.00;1.50;;;;;;;15.42;100.00;102708.16;10377729;28;20049;-77
2023/04/17 11:48:25;;;;;;;2.03;1.08;;;;;;;15.29;100.00;102702.53;10371723;28;20084;-77
2023/04/17 11:53:26;;;;;;;1.98;1.08;;;;;;;15.06;100.00;102709.50;10375844;28;20046;-77
2023/04/17 11:58:28;;;;;;;2.08;1.55;;;;;;;16.15;100.00;102708.88;10362403;28;20095;-77
2023/04/17 12:03:34;;;;;;;2.05;1.42;;;;;;;16.31;100.00;102702.44;10356635;28;20060;-77
2023/04/17 12:08:51;;;;;;;1.38;1.08;;;;;;;15.93;100.00;102707.28;10358665;28;20042;-77
2023/04/17 12:13:54;;;;;;;1.40;1.20;;;;;;;16.46;100.00;102715.91;10351499;28;20043;-77
2023/04/17 12:18:56;;;;;;;2.03;1.35;;;;;;;16.08;100.00;102709.53;10363891;28;20038;-77
2023/04/17 12:23:57;;;;;;;4.75;1.30;;;;;;;15.19;100.00;102716.03;10360249;28;20045;-77
2023/04/17 12:28:59;;;;;;;1.67;1.05;;;;;;;15.48;100.00;102709.25;10352472;28;20133;-78
2023/04/17 12:34:00;;;;;;;1.40;1.15;;;;;;;15.61;100.00;102704.47;10375991;28;20045;-78
2023/04/17 12:39:02;;;;;;;6.93;2.55;;;;;;;15.19;100.00;102709.13;10348077;28;20427;-78
2023/04/17 12:44:04;;;;;;;4.00;2.17;;;;;;;15.65;100.00;102703.75;10372724;28;20554;-78
2023/04/17 12:49:06;;;;;;;2.15;1.48;;;;;;;15.52;100.00;102705.94;10393596;28;20042;-77
2023/04/17 12:54:07;;;;;;;1.35;1.20;;;;;;;15.64;100.00;102704.59;10341299;28;20045;-77
2023/04/17 12:59:09;;;;;;;2.05;1.25;;;;;;;15.39;100.00;102698.53;10384122;28;20127;-77
2023/04/17 13:04:11;;;;;;;4.55;1.75;;;;;;;15.32;100.00;102704.34;10358264;28;20471;-77
2023/04/17 13:09:15;;;;;;;3.33;1.38;;;;;;;16.14;100.00;102700.19;10360215;28;20050;-77
2023/04/17 13:14:17;;;;;;;5.32;1.73;;;;;;;15.99;100.00;102699.69;10369444;28;20046;-77
2023/04/17 13:19:18;;;;;;;1.60;1.33;;;;;;;15.93;100.00;102691.69;10368397;28;20081;-77
2023/04/17 13:24:20;;;;;;;1.17;0.85;;;;;;;15.74;100.00;102691.09;10367111;28;20101;-77
2023/04/17 13:29:22;;;;;;;2.58;1.33;;;;;;;16.08;100.00;102679.19;10356548;28;20052;-77
2023/04/17 13:34:23;;;;;;;1.25;0.93;;;;;;;16.33;100.00;102682.56;10360732;28;20121;-77
2023/04/17 13:39:25;;;;;;;3.28;1.20;;;;;;;16.53;100.00;102666.66;10358645;28;20045;-78
2023/04/17 13:44:27;;;;;;;0.82;0.70;;;;;;;17.10;100.00;102652.66;10352282;28;20070;-78
2023/04/17 13:49:28;;;;;;;2.42;1.55;;;;;;;17.40;100.00;102647.38;10355071;28;20055;-77
2023/04/17 13:54:30;;;;;;;2.13;1.40;;;;;;;17.99;100.00;102643.59;10328557;28;20428;-78
2023/04/17 13:59:31;;;;;;;0.88;0.85;;;;;;;17.41;100.00;102630.91;10323592;28;20133;-77
2023/04/17 14:04:33;;;;;;;1.67;1.08;;;;;;;17.64;100.00;102627.09;10338665;28;20052;-79
2023/04/17 14:09:35;;;;;;;1.58;1.30;;;;;;;17.59;100.00;102627.00;10372052;28;20044;-78
2023/04/17 14:14:36;;;;;;;2.20;1.48;;;;;;;16.87;100.00;102618.16;10353845;28;20092;-78
2023/04/17 14:19:38;;;;;;;4.65;1.23;;;;;;;17.06;100.00;102617.84;10366250;28;20412;-78
2023/04/17 14:24:39;;;;;;;4.03;1.23;;;;;;;17.06;100.00;102612.66;10351990;28;21031;-78
2023/04/17 14:29:40;;;;;;;2.45;1.40;;;;;;;17.47;100.00;102611.03;10374229;28;20046;-77
2023/04/17 14:34:42;;;;;;;1.67;0.75;;;;;;;17.24;100.00;102608.75;10379163;28;20041;-78
2023/04/17 14:39:43;;;;;;;1.75;1.38;;;;;;;17.47;100.00;102603.22;10349043;28;20504;-77
2023/04/17 14:44:45;;;;;;;1.63;0.73;;;;;;;17.19;100.00;102597.34;10379932;28;20047;-78
2023/04/17 14:49:47;;;;;;;1.88;1.23;;;;;;;18.02;100.00;102594.13;10386105;28;20215;-79
2023/04/17 14:54:48;;;;;;;1.60;0.90;;;;;;;17.98;100.00;102594.91;10376490;28;20147;-79
2023/04/17 14:59:50;;;;;;;0.93;0.60;;;;;;;18.13;92.59;102588.28;10394264;28;20053;-78
2023/04/17 15:04:52;;;;;;;1.92;0.60;;;;;;;18.21;95.26;102581.47;10385184;28;20041;-78
2023/04/17 15:09:53;;;;;;;1.23;0.68;;;;;;;17.84;95.38;102580.63;10388798;28;20045;-78
2023/04/17 15:14:56;;;;;;;0.60;0.32;;;;;;;18.26;90.15;102582.47;10391569;28;20061;-78
2023/04/17 15:19:59;;;;;;;1.38;0.80;;;;;;;19.24;92.66;102564.28;10388101;28;20060;-78
2023/04/17 15:25:01;;;;;;;0.65;0.40;;;;;;;18.84;90.37;102563.56;10369749;28;20061;-77
2023/04/17 15:30:05;;;;;;;1.08;0.30;;;;;;;18.15;86.36;102569.19;10383711;28;20133;-78
2023/04/17 15:35:07;;;;;;;0.77;0.68;;;;;;;16.90;94.99;102571.38;10362503;28;20564;-77
2023/04/17 15:40:09;;;;;;;0.32;0.32;;;;;;;16.84;98.24;102571.22;10379520;28;20050;-77
2023/04/17 15:45:10;;;;;;;2.03;0.85;;;;;;;16.45;96.73;102568.47;10384175;28;20128;-77
2023/04/17 15:50:12;;;;;;;1.05;0.73;;;;;;;16.35;100.00;102566.41;10373995;28;20128;-78
2023/04/17 15:55:14;;;;;;;3.90;1.45;;;;;;;16.58;100.00;102563.59;10385873;28;20045;-77
2023/04/17 16:00:16;;;;;;;1.25;0.88;;;;;;;17.20;100.00;102563.50;10374407;28;20424;-77
2023/04/17 16:05:17;;;;;;;1.42;0.77;;;;;;;17.92;93.67;102558.22;10371232;28;20125;-78
2023/04/17 16:10:19;;;;;;;1.23;0.75;;;;;;;18.07;92.63;102547.28;10369005;28;20049;-78
2023/04/17 16:15:21;;;;;;;1.15;0.40;;;;;;;18.54;87.62;102549.06;10373339;28;20548;-78
2023/04/17 16:20:22;;;;;;;20.65;2.85;;;;;;;17.56;93.77;102554.84;10390683;28;20129;-79
2023/04/17 16:25:24;;;;;;;0.73;0.63;;;;;;;17.28;94.33;102553.28;10386743;28;20049;-78
2023/04/17 16:30:25;;;;;;;0.98;0.52;;;;;;;17.34;96.81;102550.81;10395311;28;20049;-77
2023/04/17 16:35:28;;;;;;;1.67;1.13;;;;;;;17.64;93.39;102546.31;10390261;28;20042;-77
2023/04/17 16:40:30;;;;;;;4.43;1.40;;;;;;;17.59;91.90;102548.81;10382244;28;20158;-78
2023/04/17 16:45:31;;;;;;;0.68;0.50;;;;;;;17.94;91.40;102546.09;10384846;28;20046;-78
2023/04/17 16:50:33;;;;;;;0.98;0.65;;;;;;;17.79;90.22;102546.66;10362213;28;20907;-77
2023/04/17 16:55:35;;;;;;;0.50;0.45;;;;;;;17.82;86.45;102556.28;10367476;28;20053;-79
2023/04/17 17:00:36;;;;;;;1.33;0.85;;;;;;;17.83;93.32;102539.78;10370831;28;20046;-78
2023/04/17 17:05:38;;;;;;;1.88;1.30;;;;;;;17.83;86.88;102555.44;10350553;28;20083;-78
2023/04/17 17:10:40;;;;;;;1.00;0.90;;;;;;;17.81;93.08;102546.69;10370951;28;20052;-79
2023/04/17 17:15:41;;;;;;;1.42;0.43;;;;;;;17.14;90.97;102550.34;10356477;28;20581;-78
2023/04/17 17:20:42;;;;;;;1.35;1.25;;;;;;;17.48;92.59;102550.28;10348931;28;20052;-78
2023/04/17 17:25:44;;;;;;;1.42;0.73;;;;;;;16.80;94.10;102544.25;10352692;28;20061;-78
2023/04/17 17:30:46;;;;;;;0.47;0.30;;;;;;;16.85;95.11;102554.78;10365220;28;20048;-78
2023/04/17 17:35:48;;;;;;;0.40;0.40;;;;;;;16.97;92.99;102549.91;10371646;28;20125;-79
2023/04/17 17:40:50;;;;;;;1.08;0.60;;;;;;;16.41;93.83;102540.63;10360096;28;20049;-78
2023/04/17 17:45:52;;;;;;;3.83;1.00;;;;;;;16.28;99.22;102547.19;10379152;28;20564;-78
2023/04/17 17:50:55;;;;;;;3.53;1.35;;;;;;;16.23;93.63;102550.47;10387974;28;20046;-78
2023/04/17 17:55:57;;;;;;;2.05;0.77;;;;;;;16.10;98.28;102555.34;10380447;28;20483;-80
2023/04/17 18:00:58;;;;;;;0.88;0.85;;;;;;;15.89;95.75;102557.28;10355037;28;20037;-80
2023/04/17 18:06:00;;;;;;;0.52;0.45;;;;;;;15.63;97.03;102552.13;10370029;28;20522;-78
2023/04/17 18:11:01;;;;;;;1.27;0.70;;;;;;;15.42;97.30;102557.50;10361618;28;20176;-78
2023/04/17 18:16:03;;;;;;;0.55;0.55;;;;;;;14.98;100.00;102558.69;10364991;28;20050;-78
2023/04/17 18:21:05;;;;;;;0.35;0.30;;;;;;;14.79;100.00;102561.47;10357002;28;20046;-78
2023/04/17 18:26:07;;;;;;;1.65;0.95;;;;;;;14.63;100.00;102567.81;10362772;28;20034;-78
2023/04/17 18:31:09;;;;;;;1.40;0.90;;;;;;;14.58;100.00;102575.44;10365473;28;20121;-78
2023/04/17 18:36:11;;;;;;;3.60;1.40;;;;;;;14.01;100.00;102583.69;10376294;28;20050;-78
2023/04/17 18:41:12;;;;;;;1.08;0.80;;;;;;;13.96;100.00;102584.38;10348207;28;20137;-78
2023/04/17 18:46:13;;;;;;;0.88;0.50;;;;;;;14.05;100.00;102585.53;10364306;28;20045;-79
2023/04/17 18:51:16;;;;;;;0.32;0.32;;;;;;;13.99;100.00;102587.91;10360698;28;20057;-80
2023/04/17 18:56:17;;;;;;;2.03;0.70;;;;;;;13.78;100.00;102588.84;10380751;28;20072;-79
2023/04/17 19:01:19;;;;;;;0.52;0.52;;;;;;;13.57;100.00;102594.94;10354789;28;20049;-80
2023/04/17 19:06:21;;;;;;;0.60;0.60;;;;;;;13.26;100.00;102603.97;10369868;28;20165;-78
2023/04/17 19:11:23;;;;;;;0.35;0.20;;;;;;;13.46;100.00;102596.19;10347901;28;20049;-78
2023/04/17 19:16:24;;;;;;;3.95;1.15;;;;;;;13.64;100.00;102604.72;10384025;28;20045;-78
2023/04/17 19:21:27;;;;;;;2.10;1.10;;;;;;;13.55;100.00;102606.94;10380896;28;20046;-78
2023/04/17 19:26:28;;;;;;;2.53;0.93;;;;;;;13.47;100.00;102605.72;10370261;28;20416;-78
2023/04/17 19:31:30;;;;;;;0.50;0.43;;;;;;;13.38;100.00;102618.25;10386110;28;20041;-78
2023/04/17 19:36:32;;;;;;;0.55;0.40;;;;;;;13.19;100.00;102617.50;10373420;28;20040;-79
2023/04/17 19:41:33;;;;;;;1.27;0.85;;;;;;;13.12;100.00;102621.50;10361917;28;20512;-77
2023/04/17 19:46:35;;;;;;;2.45;1.40;;;;;;;13.06;100.00;102610.03;10347777;28;20484;-77
2023/04/17 19:51:37;;;;;;;0.30;0.30;;;;;;;12.84;100.00;102622.91;10343636;28;20050;-78
2023/04/17 19:56:38;;;;;;;2.25;0.90;;;;;;;12.85;100.00;102632.44;10354010;28;20048;-78
2023/04/17 20:01:40;;;;;;;4.63;0.95;;;;;;;12.58;100.00;102626.03;10353719;28;20512;-77
2023/04/17 20:06:44;;;;;;;0.88;0.80;;;;;;;12.31;100.00;102630.00;10371805;28;20046;-77
2023/04/17 20:11:45;;;;;;;0.20;0.20;;;;;;;12.25;100.00;102629.69;10371385;28;20510;-77
2023/04/17 20:16:48;;;;;;;4.97;2.05;;;;;;;12.09;100.00;102634.97;10352150;28;20040;-77
2023/04/17 20:21:50;;;;;;;2.10;1.13;;;;;;;12.21;100.00;102631.25;10374436;28;20041;-77
2023/04/17 20:26:52;;;;;;;4.10;0.95;;;;;;;12.14;100.00;102643.81;10363667;28;20045;-77
2023/04/17 20:31:53;;;;;;;0.22;0.13;;;;;;;12.01;100.00;102645.84;10369264;28;20049;-77
2023/04/17 20:36:55;;;;;;;0.57;0.50;;;;;;;12.04;100.00;102643.38;10368909;28;20042;-76
2023/04/17 20:41:56;;;;;;;0.63;0.63;;;;;;;12.06;100.00;102639.19;10371130;28;20046;-77
2023/04/17 20:46:58;;;;;;;1.02;0.68;;;;;;;12.04;100.00;102625.28;10350267;28;20044;-77
2023/04/17 20:52:00;;;;;;;1.17;0.80;;;;;;;12.17;100.00;102623.31;10387049;28;20583;-76
2023/04/17 20:57:02;;;;;;;2.17;1.50;;;;;;;12.27;100.00;102635.81;10369827;28;20489;-78
2023/04/17 21:02:04;;;;;;;1.00;0.57;;;;;;;12.22;100.00;102630.44;10369700;28;20523;-77
2023/04/17 21:07:05;;;;;;;0.82;0.70;;;;;;;12.08;100.00;102635.78;10357318;28;20042;-77
2023/04/17 21:12:07;;;;;;;1.73;0.77;;;;;;;11.95;100.00;102632.56;10344797;28;20046;-77
2023/04/17 21:17:09;;;;;;;1.45;1.10;;;;;;;11.96;100.00;102639.50;10373577;28;20128;-77
2023/04/17 21:22:10;;;;;;;1.55;1.30;;;;;;;11.55;100.00;102638.38;10356262;28;20062;-77
2023/04/17 21:27:14;;;;;;;1.48;0.85;;;;;;;11.42;100.00;102644.63;10353979;28;20053;-76
2023/04/17 21:32:15;;;;;;;2.35;1.10;;;;;;;11.39;100.00;102641.91;10369269;28;20091;-77
2023/04/17 21:37:17;;;;;;;0.57;0.40;;;;;;;11.34;100.00;102651.09;10374211;28;20407;-77
2023/04/17 21:42:18;;;;;;;0.43;0.38;;;;;;;11.28;100.00;102656.84;10350814;28;20062;-78
2023/04/17 21:47:20;;;;;;;1.50;0.80;;;;;;;11.33;100.00;102660.53;10364245;28;20041;-77
2023/04/17 21:52:21;;;;;;;0.85;0.60;;;;;;;11.11;100.00;102669.75;10365503;28;20077;-78
2023/04/17 21:57:23;;;;;;;0.40;0.40;;;;;;;10.99;100.00;102673.38;10370500;28;20048;-78
2023/04/17 22:02:24;;;;;;;0.22;0.22;;;;;;;11.20;100.00;102668.47;10341267;28;20411;-77
2023/04/17 22:07:26;;;;;;;0.98;0.75;;;;;;;10.74;100.00;102683.28;10349946;28;20077;-77
2023/04/17 22:12:27;;;;;;;1.40;0.95;;;;;;;10.82;100.00;102687.97;10351662;28;20057;-79
2023/04/17 22:17:30;;;;;;;1.30;0.93;;;;;;;10.77;100.00;102683.41;10351650;28;20044;-78
2023/04/17 22:22:31;;;;;;;0.25;0.25;;;;;;;10.56;100.00;102687.41;10375008;28;20045;-78
2023/04/17 22:27:33;;;;;;;0.68;0.35;;;;;;;10.44;100.00;102688.53;10343478;28;20081;-79
2023/04/17 22:32:34;;;;;;;1.50;1.40;;;;;;;10.34;100.00;102686.22;10391462;28;20096;-78
2023/04/17 22:37:36;;;;;;;5.57;0.68;;;;;;;10.09;100.00;102683.94;10355981;28;20080;-78
2023/04/17 22:42:37;;;;;;;0.50;0.50;;;;;;;10.16;100.00;102686.94;10370940;28;20050;-77
2023/04/17 22:47:39;;;;;;;1.42;0.80;;;;;;;10.11;100.00;102693.53;10348991;28;20508;-77
2023/04/17 22:52:41;;;;;;;1.27;0.75;;;;;;;9.87;100.00;102694.69;10348925;28;20046;-77
2023/04/17 22:57:43;;;;;;;0.75;0.70;;;;;;;9.72;100.00;102690.44;10349537;28;20523;-77
2023/04/17 23:02:45;;;;;;;1.10;0.63;;;;;;;9.41;100.00;102690.34;10366462;28;20119;-77